Sukran S — TCKB — position and weather

sailwx.info

Track history (hours):
 
Tides and Currents Weather Stations Pressure Air Temp Water Temp Dewpoint Dewpoint Depression Visibility Wind Speed Wind Dir Waves Ship Positions

Sukran S

Last reported at 2017-Nov-19 17:57 UTC. Time now 2017-Nov-19 18:16 UTC.
Position N 46°51' E 031°59'.

Length 108 m; draft 4 m.

Type: Cargo ship. MMSI: 271000056.

Date/timePositionNaut miles runAvg speedWind from/ knotsBaromVisibWave heightAir tempDewpointWater temp
2017-Nov-19 17:57N 46°51' E 031°59'0 0.0
2017-Nov-19 17:30N 46°51' E 031°59'0 0.0
2017-Nov-19 17:00N 46°51' E 031°59'0 0.0
2017-Nov-19 16:27N 46°51' E 031°59'0 0.0
2017-Nov-19 16:00N 46°51' E 031°59'0 0.3
2017-Nov-19 15:30N 46°51' E 031°59'1 2.9
2017-Nov-19 15:00N 46°51' E 031°57'3 6.4
2017-Nov-19 14:30N 46°48' E 031°53'4 8.7
2017-Nov-19 14:00N 46°44' E 031°55'5 9.3
2017-Nov-19 13:30N 46°39' E 031°56'5 9.7
2017-Nov-19 13:00N 46°36' E 031°50'5 9.5
2017-Nov-19 12:30N 46°36' E 031°43'5 9.4
2017-Nov-19 12:00N 46°35' E 031°37'7 8.6
2017-Nov-19 11:08N 46°35' E 031°26'19 9.2
2017-Nov-19 09:07N 46°33' E 030°59'1 9.0
2017-Nov-19 09:00N 46°33' E 030°57'5 9.7
2017-Nov-19 08:28N 46°27' E 030°57'126 9.5
2017-Nov-18 19:07N 44°38' E 029°27'1 8.9
2017-Nov-18 19:00N 44°37' E 029°26'4 8.9
2017-Nov-18 18:30N 44°33' E 029°23'5 9.3
2017-Nov-18 18:00N 44°29' E 029°22'5 9.2
2017-Nov-18 17:30N 44°24' E 029°19'5 9.0
2017-Nov-18 17:00N 44°20' E 029°17'4 8.9
2017-Nov-18 16:30N 44°16' E 029°15'5 9.1
2017-Nov-18 16:00N 44°12' E 029°12'5 9.2
2017-Nov-18 15:30N 44°08' E 029°09'5 9.2
2017-Nov-18 15:00N 44°04' E 029°07'5 9.1
2017-Nov-18 14:30N 43°59' E 029°05'5 9.3
2017-Nov-18 14:00N 43°55' E 029°03'5 9.5
2017-Nov-18 13:30N 43°51' E 029°00'5 9.6
2017-Nov-18 13:00N 43°46' E 028°58'5 9.8
2017-Nov-18 12:30N 43°42' E 028°55'5 9.6
2017-Nov-18 12:00N 43°37' E 028°53'156 8.3
2017-Nov-17 17:14N 41°01' E 029°00'2 7.2
2017-Nov-17 16:57N 40°59' E 028°60'3 5.5
2017-Nov-17 16:22N 40°57' E 028°58'2 3.4
2017-Nov-17 15:40N 40°59' E 028°56'1 0.2
2017-Nov-17 10:19N 40°58' E 028°57'4 8.6
2017-Nov-17 09:49N 40°54' E 028°55'3 9.6
2017-Nov-17 09:31N 40°52' E 028°51'  
Track history (hours):
 
Tides and Currents Weather Stations Pressure Air Temp Water Temp Dewpoint Dewpoint Depression Visibility Wind Speed Wind Dir Waves Ship Positions

Sukran S

Last reported at 2017-Nov-19 17:57 UTC. Time now 2017-Nov-19 18:16 UTC.
Position N 46°51' E 031°59'.

Length 108 m; draft 4 m.

Type: Cargo ship. MMSI: 271000056.

Date/timePositionNaut miles runAvg speedWind from/ knotsBaromVisibWave heightAir tempDewpointWater temp
2017-Nov-19 17:57N 46°51' E 031°59'0 0.0
2017-Nov-19 17:30N 46°51' E 031°59'0 0.0
2017-Nov-19 17:00N 46°51' E 031°59'0 0.0
2017-Nov-19 16:27N 46°51' E 031°59'0 0.0
2017-Nov-19 16:00N 46°51' E 031°59'0 0.3
2017-Nov-19 15:30N 46°51' E 031°59'1 2.9
2017-Nov-19 15:00N 46°51' E 031°57'3 6.4
2017-Nov-19 14:30N 46°48' E 031°53'4 8.7
2017-Nov-19 14:00N 46°44' E 031°55'5 9.3
2017-Nov-19 13:30N 46°39' E 031°56'5 9.7
2017-Nov-19 13:00N 46°36' E 031°50'5 9.5
2017-Nov-19 12:30N 46°36' E 031°43'5 9.4
2017-Nov-19 12:00N 46°35' E 031°37'7 8.6
2017-Nov-19 11:08N 46°35' E 031°26'19 9.2
2017-Nov-19 09:07N 46°33' E 030°59'1 9.0
2017-Nov-19 09:00N 46°33' E 030°57'5 9.7
2017-Nov-19 08:28N 46°27' E 030°57'126 9.5
2017-Nov-18 19:07N 44°38' E 029°27'1 8.9
2017-Nov-18 19:00N 44°37' E 029°26'4 8.9
2017-Nov-18 18:30N 44°33' E 029°23'5 9.3
2017-Nov-18 18:00N 44°29' E 029°22'5 9.2
2017-Nov-18 17:30N 44°24' E 029°19'5 9.0
2017-Nov-18 17:00N 44°20' E 029°17'4 8.9
2017-Nov-18 16:30N 44°16' E 029°15'5 9.1
2017-Nov-18 16:00N 44°12' E 029°12'5 9.2
2017-Nov-18 15:30N 44°08' E 029°09'5 9.2
2017-Nov-18 15:00N 44°04' E 029°07'5 9.1
2017-Nov-18 14:30N 43°59' E 029°05'5 9.3
2017-Nov-18 14:00N 43°55' E 029°03'5 9.5
2017-Nov-18 13:30N 43°51' E 029°00'5 9.6
2017-Nov-18 13:00N 43°46' E 028°58'5 9.8
2017-Nov-18 12:30N 43°42' E 028°55'5 9.6
2017-Nov-18 12:00N 43°37' E 028°53'156 8.3
2017-Nov-17 17:14N 41°01' E 029°00'2 7.2
2017-Nov-17 16:57N 40°59' E 028°60'3 5.5
2017-Nov-17 16:22N 40°57' E 028°58'2 3.4
2017-Nov-17 15:40N 40°59' E 028°56'1 0.2
2017-Nov-17 10:19N 40°58' E 028°57'4 8.6
2017-Nov-17 09:49N 40°54' E 028°55'3 9.6
2017-Nov-17 09:31N 40°52' E 028°51'  

Dump ship's entire track history